createdAt,value
2022-09-18T00:03:06.320Z,10.60
2022-09-18T00:07:09.212Z,10.60
2022-09-18T00:11:14.298Z,10.60
2022-09-18T00:15:17.226Z,10.70
2022-09-18T00:19:20.627Z,10.80
2022-09-18T00:23:23.551Z,10.80
2022-09-18T00:27:26.575Z,10.80
2022-09-18T00:31:32.233Z,10.80
2022-09-18T00:35:35.335Z,10.80
2022-09-18T00:39:41.148Z,10.70
2022-09-18T00:43:44.791Z,10.80
2022-09-18T00:47:51.359Z,10.90
2022-09-18T00:51:57.169Z,11.10
2022-09-18T00:56:02.270Z,11.20
2022-09-18T01:00:11.966Z,11.10
2022-09-18T01:04:15.842Z,11.00
2022-09-18T01:08:30.204Z,11.00
2022-09-18T01:12:56.280Z,10.90
2022-09-18T01:17:19.230Z,10.90
2022-09-18T01:21:46.846Z,10.80
2022-09-18T01:26:09.786Z,10.70
2022-09-18T01:30:13.557Z,10.70
2022-09-18T01:34:46.095Z,10.60
2022-09-18T01:39:02.733Z,10.50
2022-09-18T01:43:09.147Z,10.50
2022-09-18T01:47:15.218Z,10.40
2022-09-18T01:51:28.714Z,10.20
2022-09-18T01:55:34.518Z,10.20
2022-09-18T01:59:56.161Z,10.10
2022-09-18T02:04:04.731Z,10.00
2022-09-18T02:08:14.118Z,10.00
2022-09-18T02:12:21.281Z,9.90
2022-09-18T02:16:38.071Z,9.80
2022-09-18T05:15:07.301Z,8.70
2022-09-18T05:54:11.995Z,9.10
2022-09-18T08:53:49.594Z,17.60
2022-09-18T09:17:40.816Z,18.80
2022-09-18T09:50:20.460Z,20.10
2022-09-18T09:54:23.716Z,20.40
2022-09-18T10:04:05.894Z,20.90
2022-09-18T10:08:32.373Z,21.00
2022-09-18T10:17:34.795Z,21.40
2022-09-18T10:26:02.174Z,21.80
2022-09-18T11:12:53.601Z,23.20
2022-09-18T11:17:08.127Z,23.40
2022-09-18T11:21:18.285Z,23.50
2022-09-18T11:25:32.509Z,23.40
2022-09-18T11:29:46.075Z,23.40
2022-09-18T11:33:53.373Z,23.50
2022-09-18T11:38:07.972Z,23.50
2022-09-18T11:42:17.142Z,23.40
2022-09-18T11:46:55.483Z,23.40
2022-09-18T11:51:01.671Z,23.80
2022-09-18T11:55:26.932Z,24.00
2022-09-18T11:59:46.698Z,23.90
2022-09-18T12:04:26.794Z,23.90
2022-09-18T12:08:34.478Z,23.90
2022-09-18T12:17:39.242Z,24.50
2022-09-18T12:22:06.483Z,24.50
2022-09-18T12:26:15.302Z,24.80
2022-09-18T12:30:45.034Z,24.90
2022-09-18T12:40:16.887Z,25.10
2022-09-18T12:44:50.910Z,25.20
2022-09-18T12:49:15.208Z,25.10
2022-09-18T12:53:33.718Z,25.30
2022-09-18T12:57:59.673Z,25.40
2022-09-18T13:06:46.786Z,25.40
2022-09-18T13:10:55.112Z,25.20
2022-09-18T13:15:06.576Z,25.10
2022-09-18T13:19:34.684Z,25.30
2022-09-18T13:23:40.209Z,25.50
2022-09-18T13:27:43.321Z,25.50
2022-09-18T13:31:54.621Z,25.60
2022-09-18T13:35:58.699Z,25.50
2022-09-18T13:40:10.464Z,25.40
2022-09-18T13:44:22.568Z,25.50
2022-09-18T13:48:28.330Z,25.50
2022-09-18T13:52:34.385Z,25.50
2022-09-18T13:57:10.408Z,25.50
2022-09-18T14:01:33.187Z,25.50
2022-09-18T14:05:41.262Z,25.30
2022-09-18T18:03:15.933Z,19.70
2022-09-18T18:07:44.770Z,19.50
2022-09-18T20:28:26.703Z,17.10
2022-09-18T20:36:54.089Z,17.10
2022-09-18T20:41:04.828Z,17.20
2022-09-18T21:06:43.450Z,17.20
2022-09-18T21:10:50.022Z,17.10
2022-09-18T21:23:47.659Z,17.00
2022-09-18T21:27:55.004Z,17.00
2022-09-18T21:36:17.113Z,16.90
2022-09-18T21:48:56.164Z,16.60
2022-09-18T21:52:59.783Z,16.60
2022-09-18T21:57:03.755Z,16.60
2022-09-18T22:01:15.768Z,16.50
2022-09-18T22:05:26.602Z,16.50
2022-09-18T22:09:33.076Z,16.30
2022-09-18T22:13:43.851Z,16.30
2022-09-18T22:17:51.614Z,16.10
2022-09-18T22:21:54.447Z,16.20
2022-09-18T22:30:21.997Z,16.20
2022-09-18T22:34:26.998Z,16.20
2022-09-18T22:38:29.888Z,16.10
2022-09-18T22:42:33.657Z,16.00
2022-09-18T22:46:39.516Z,16.00
2022-09-18T22:55:08.765Z,15.90
2022-09-18T22:59:13.686Z,15.80
2022-09-18T23:03:16.825Z,15.70
2022-09-18T23:07:20.687Z,15.70
2022-09-18T23:11:25.653Z,15.60
2022-09-18T23:15:28.890Z,15.40
2022-09-18T23:19:34.461Z,15.30
2022-09-18T23:23:39.931Z,15.20
2022-09-18T23:27:43.436Z,15.10
2022-09-18T23:31:53.145Z,15.00
2022-09-18T23:36:04.186Z,14.90
2022-09-18T23:40:09.641Z,14.80
2022-09-18T23:48:34.275Z,14.70
2022-09-18T23:52:37.477Z,14.70
2022-09-18T23:56:40.834Z,14.60
